Time;durP1;ratioP1;P1;durP2;ratioP2;P2;SDS_P1;SDS_P2;PMS_P1;PMS_P2;Temp;Humidity;BMP_temperature;BMP_pressure;BME280_temperature;BME280_humidity;BME280_pressure;Samples;Min_cycle;Max_cycle;Signal;HPM_P1;HPM_P2
2022/09/28 00:00:05;;;;;;;;;;;21.60;84.60;;;;;;5115825;28;19912;-48
2022/09/28 00:02:31;;;;;;;;;;;21.60;84.70;;;;;;5095476;28;19916;-44
2022/09/28 00:04:56;;;;;;;;;;;21.60;84.80;;;;;;5076999;28;20056;-44
2022/09/28 00:07:22;;;;;;;;;;;21.60;84.80;;;;;;5094899;28;19908;-44
2022/09/28 00:09:47;;;;;;;;;;;21.50;84.90;;;;;;5095369;28;19908;-45
2022/09/28 00:12:13;;;;;;;;;;;21.50;84.90;;;;;;5076903;28;19908;-43
2022/09/28 00:14:39;;;;;;;;;;;21.50;84.90;;;;;;5094883;28;19961;-47
2022/09/28 00:17:05;;;;;;;;;;;21.50;85.00;;;;;;5076970;28;19919;-44
2022/09/28 00:19:30;;;;;;;;;;;21.40;84.90;;;;;;5094931;28;19908;-46
2022/09/28 00:21:56;;;;;;;;;;;21.50;85.00;;;;;;5094869;28;20015;-45
2022/09/28 00:24:21;;;;;;;;;;;21.50;85.10;;;;;;5094997;28;19908;-48
2022/09/28 00:26:48;;;;;;;;;;;21.40;85.70;;;;;;5094975;28;20350;-44
2022/09/28 00:29:15;;;;;;;;;;;21.40;85.10;;;;;;5094777;28;20261;-44
2022/09/28 00:31:41;;;;;;;;;;;21.40;85.30;;;;;;5094877;28;19908;-48
2022/09/28 00:34:07;;;;;;;;;;;21.40;85.20;;;;;;5094752;28;19931;-45
2022/09/28 00:36:32;;;;;;;;;;;21.40;85.30;;;;;;5094705;28;19924;-45
2022/09/28 00:38:58;;;;;;;;;;;21.40;85.20;;;;;;5094787;28;19940;-44
2022/09/28 00:41:25;;;;;;;;;;;21.40;85.30;;;;;;5094649;28;20035;-43
2022/09/28 00:43:50;;;;;;;;;;;21.30;85.20;;;;;;5094158;28;19919;-47
2022/09/28 00:46:30;;;;;;;;;;;21.30;85.30;;;;;;5094565;28;19908;-44
2022/09/28 00:48:57;;;;;;;;;;;21.30;85.20;;;;;;5094564;28;19932;-43
2022/09/28 00:51:24;;;;;;;;;;;21.30;85.20;;;;;;5094414;28;19915;-45
2022/09/28 00:53:50;;;;;;;;;;;21.30;85.20;;;;;;5094457;28;19915;-45
2022/09/28 00:56:18;;;;;;;;;;;21.30;85.20;;;;;;5094213;28;19908;-43
2022/09/28 00:58:49;;;;;;;;;;;21.40;85.30;;;;;;5094369;28;19951;-49
2022/09/28 01:01:15;;;;;;;;;;;21.40;85.20;;;;;;5103929;28;20321;-43
2022/09/28 01:03:44;;;;;;;;;;;21.40;85.10;;;;;;5114208;28;19908;-45
2022/09/28 01:06:12;;;;;;;;;;;21.40;85.00;;;;;;5096455;28;19954;-45
2022/09/28 01:08:38;;;;;;;;;;;21.40;85.10;;;;;;5114264;28;19907;-44
2022/09/28 01:11:04;;;;;;;;;;;21.40;84.90;;;;;;5114510;28;19931;-43
2022/09/28 01:13:30;;;;;;;;;;;21.40;84.90;;;;;;5114234;28;19915;-47
2022/09/28 01:16:01;;;;;;;;;;;21.40;84.90;;;;;;5096314;28;19915;-46
2022/09/28 01:18:38;;;;;;;;;;;21.40;84.90;;;;;;5114054;28;19908;-44
2022/09/28 01:21:18;;;;;;;;;;;21.40;84.90;;;;;;5114462;28;19968;-44
2022/09/28 01:24:02;;;;;;;;;;;21.40;85.00;;;;;;5114291;28;19915;-45
2022/09/28 01:26:42;;;;;;;;;;;21.30;84.90;;;;;;5114101;28;20002;-46
2022/09/28 01:29:38;;;;;;;;;;;21.30;84.80;;;;;;5114349;28;20402;-45
2022/09/28 01:32:13;;;;;;;;;;;21.30;84.80;;;;;;5041106;28;19916;-45
2022/09/28 01:34:59;;;;;;;;;;;21.30;85.00;;;;;;5114393;28;19911;-43
2022/09/28 01:37:27;;;;;;;;;;;21.30;84.90;;;;;;5099313;28;19919;-47
2022/09/28 01:39:54;;;;;;;;;;;21.30;85.00;;;;;;5114481;28;19952;-44
2022/09/28 01:42:23;;;;;;;;;;;21.20;85.00;;;;;;5113864;28;19942;-44
2022/09/28 01:44:50;;;;;;;;;;;21.20;85.00;;;;;;5113914;28;19907;-45
2022/09/28 01:47:18;;;;;;;;;;;21.20;85.10;;;;;;5114060;28;19908;-44
2022/09/28 01:49:46;;;;;;;;;;;21.20;85.10;;;;;;5113896;28;19915;-44
2022/09/28 01:52:17;;;;;;;;;;;21.20;85.20;;;;;;5113828;28;19908;-47
2022/09/28 01:55:02;;;;;;;;;;;21.20;85.10;;;;;;5114171;28;19915;-44
2022/09/28 01:57:36;;;;;;;;;;;21.20;85.20;;;;;;5113771;28;19920;-44
2022/09/28 02:00:05;;;;;;;;;;;21.10;85.20;;;;;;5113910;28;19907;-44
2022/09/28 02:02:32;;;;;;;;;;;21.10;85.20;;;;;;5093633;28;19952;-43
2022/09/28 02:05:03;;;;;;;;;;;21.10;85.30;;;;;;5093613;28;19967;-43
2022/09/28 02:07:32;;;;;;;;;;;21.10;85.40;;;;;;5093284;28;19944;-45
2022/09/28 02:09:59;;;;;;;;;;;21.00;85.40;;;;;;5075491;28;19908;-46
2022/09/28 02:12:24;;;;;;;;;;;21.00;85.40;;;;;;5093653;28;19912;-44
2022/09/28 02:14:53;;;;;;;;;;;21.00;85.40;;;;;;5093599;28;19977;-45
2022/09/28 02:17:19;;;;;;;;;;;20.90;85.50;;;;;;5093585;28;19908;-44
2022/09/28 02:19:46;;;;;;;;;;;20.90;85.60;;;;;;5092599;28;20343;-48
2022/09/28 02:22:24;;;;;;;;;;;20.90;86.20;;;;;;5093485;28;20003;-46
2022/09/28 02:24:52;;;;;;;;;;;20.80;85.80;;;;;;5093173;28;19912;-46
2022/09/28 02:27:22;;;;;;;;;;;20.80;85.80;;;;;;5093133;28;19916;-45
2022/09/28 02:29:48;;;;;;;;;;;20.80;86.00;;;;;;5094291;28;19953;-44
2022/09/28 02:32:14;;;;;;;;;;;20.80;86.10;;;;;;5097080;28;20313;-47
2022/09/28 02:34:40;;;;;;;;;;;20.80;86.10;;;;;;5097044;28;19908;-43
2022/09/28 02:37:05;;;;;;;;;;;20.80;86.20;;;;;;5096707;28;19912;-43
2022/09/28 02:39:31;;;;;;;;;;;20.70;86.30;;;;;;5096634;28;19908;-44
2022/09/28 02:42:19;;;;;;;;;;;20.70;86.30;;;;;;5096746;28;20011;-44
2022/09/28 02:44:50;;;;;;;;;;;20.70;86.40;;;;;;5097036;28;19916;-45
2022/09/28 02:47:24;;;;;;;;;;;20.60;86.30;;;;;;5097336;28;19940;-44
2022/09/28 02:49:57;;;;;;;;;;;20.70;86.40;;;;;;5097022;28;19962;-46
2022/09/28 02:52:32;;;;;;;;;;;20.70;86.40;;;;;;5096738;28;19915;-46
2022/09/28 02:55:09;;;;;;;;;;;20.60;86.30;;;;;;5096887;28;20313;-44
2022/09/28 02:57:55;;;;;;;;;;;20.60;86.40;;;;;;5096805;28;19926;-44
2022/09/28 03:00:21;;;;;;;;;;;20.60;87.00;;;;;;5098188;28;19908;-43
2022/09/28 03:02:53;;;;;;;;;;;20.60;86.40;;;;;;5117085;28;19911;-45
2022/09/28 03:05:20;;;;;;;;;;;20.60;86.70;;;;;;5117061;28;19973;-47
2022/09/28 03:08:00;;;;;;;;;;;20.60;86.50;;;;;;5116723;28;19911;-43
2022/09/28 03:10:35;;;;;;;;;;;20.60;86.60;;;;;;5116577;28;19915;-44
2022/09/28 03:13:02;;;;;;;;;;;20.60;86.70;;;;;;5116708;28;20385;-46
2022/09/28 03:15:28;;;;;;;;;;;20.60;86.70;;;;;;5117097;28;20399;-45
2022/09/28 03:17:55;;;;;;;;;;;20.60;86.60;;;;;;5116815;28;19961;-48
2022/09/28 03:20:20;;;;;;;;;;;20.60;86.60;;;;;;5116747;28;19908;-46
2022/09/28 03:22:46;;;;;;;;;;;20.60;86.60;;;;;;5116294;28;19923;-45
2022/09/28 03:25:11;;;;;;;;;;;20.60;86.70;;;;;;5116261;28;19931;-43
2022/09/28 03:27:37;;;;;;;;;;;20.60;86.70;;;;;;5116441;28;20338;-45
2022/09/28 03:30:03;;;;;;;;;;;20.60;86.70;;;;;;5098332;28;19951;-45
2022/09/28 03:32:28;;;;;;;;;;;20.60;86.70;;;;;;5116825;28;19933;-44
2022/09/28 03:34:54;;;;;;;;;;;20.50;86.70;;;;;;5097973;28;19935;-44
2022/09/28 03:37:20;;;;;;;;;;;20.60;86.70;;;;;;5116378;28;19912;-47
2022/09/28 03:39:45;;;;;;;;;;;20.50;86.80;;;;;;5098303;28;19972;-44
2022/09/28 03:42:11;;;;;;;;;;;20.50;86.70;;;;;;5115135;28;19915;-45
2022/09/28 03:44:36;;;;;;;;;;;20.50;86.70;;;;;;5116336;28;20335;-45
2022/09/28 03:47:02;;;;;;;;;;;20.50;86.70;;;;;;5115790;28;19908;-44
2022/09/28 03:49:27;;;;;;;;;;;20.40;86.80;;;;;;5116011;28;19960;-46
2022/09/28 03:51:53;;;;;;;;;;;20.40;86.80;;;;;;5115709;28;19996;-43
2022/09/28 03:54:18;;;;;;;;;;;20.50;86.90;;;;;;5115682;28;19908;-45
2022/09/28 03:56:44;;;;;;;;;;;20.50;86.90;;;;;;5115975;28;19954;-47
2022/09/28 03:59:09;;;;;;;;;;;20.40;86.90;;;;;;5115670;28;19961;-46
2022/09/28 04:01:35;;;;;;;;;;;20.40;86.90;;;;;;5103070;28;20322;-46
2022/09/28 04:04:00;;;;;;;;;;;20.40;87.00;;;;;;5094862;28;19920;-46
2022/09/28 04:06:26;;;;;;;;;;;20.40;87.00;;;;;;5095139;28;20019;-45
2022/09/28 04:08:51;;;;;;;;;;;20.40;87.10;;;;;;5095141;28;19912;-46
2022/09/28 04:11:17;;;;;;;;;;;20.30;87.10;;;;;;5095067;28;20380;-44
2022/09/28 04:13:42;;;;;;;;;;;20.30;87.20;;;;;;5095465;28;19920;-44
2022/09/28 04:16:08;;;;;;;;;;;20.30;87.20;;;;;;5095192;28;19912;-44
2022/09/28 04:18:34;;;;;;;;;;;20.30;87.10;;;;;;5095110;28;19912;-45
2022/09/28 04:21:02;;;;;;;;;;;20.30;87.20;;;;;;5095045;28;20339;-44
2022/09/28 04:23:28;;;;;;;;;;;20.30;87.30;;;;;;5094603;28;19908;-44
2022/09/28 04:25:53;;;;;;;;;;;20.30;87.40;;;;;;5094685;28;20083;-47
2022/09/28 04:31:07;;;;;;;;;;;20.20;87.50;;;;;;5094542;28;20007;-45
2022/09/28 04:33:32;;;;;;;;;;;20.20;86.70;;;;;;5094693;28;19950;-48
2022/09/28 04:35:59;;;;;;;;;;;20.20;87.10;;;;;;5094439;28;20057;-46
2022/09/28 04:38:24;;;;;;;;;;;20.20;87.40;;;;;;5094404;28;20490;-47
2022/09/28 04:40:50;;;;;;;;;;;20.20;87.50;;;;;;5094408;28;19908;-46
2022/09/28 04:43:15;;;;;;;;;;;20.20;87.50;;;;;;5094572;28;19931;-45
2022/09/28 04:45:41;;;;;;;;;;;20.20;87.50;;;;;;5076225;28;19961;-47
2022/09/28 04:48:06;;;;;;;;;;;20.20;87.60;;;;;;5094060;28;20363;-46
2022/09/28 04:50:32;;;;;;;;;;;20.10;87.50;;;;;;5093934;28;19930;-45
2022/09/28 04:52:59;;;;;;;;;;;20.10;87.50;;;;;;5093835;28;19908;-47
2022/09/28 04:55:27;;;;;;;;;;;20.10;87.60;;;;;;5093967;28;20002;-45
2022/09/28 04:57:53;;;;;;;;;;;20.10;87.60;;;;;;5094031;28;19954;-45
2022/09/28 05:00:18;;;;;;;;;;;20.10;88.30;;;;;;5095300;28;19912;-44
2022/09/28 05:02:44;;;;;;;;;;;20.10;87.80;;;;;;5114447;28;19919;-44
2022/09/28 05:05:09;;;;;;;;;;;20.00;87.80;;;;;;5095739;28;19931;-45
2022/09/28 05:07:35;;;;;;;;;;;20.00;87.90;;;;;;5113989;28;19908;-44
2022/09/28 05:10:01;;;;;;;;;;;20.00;88.00;;;;;;5114264;28;19931;-46
2022/09/28 05:12:26;;;;;;;;;;;20.00;88.00;;;;;;5114121;28;19930;-45
2022/09/28 05:14:51;;;;;;;;;;;20.00;88.10;;;;;;5114014;28;19908;-44
2022/09/28 05:17:17;;;;;;;;;;;20.00;88.10;;;;;;5095999;28;19915;-44
2022/09/28 05:19:42;;;;;;;;;;;20.00;88.10;;;;;;5113770;28;20366;-47
2022/09/28 05:22:13;;;;;;;;;;;19.90;88.10;;;;;;5113644;28;19915;-49
2022/09/28 05:24:39;;;;;;;;;;;19.90;88.00;;;;;;5113759;28;19912;-44
2022/09/28 05:27:04;;;;;;;;;;;19.90;88.00;;;;;;5113506;28;20086;-45
2022/09/28 05:29:30;;;;;;;;;;;19.90;88.10;;;;;;5113931;28;19947;-46
2022/09/28 05:31:55;;;;;;;;;;;19.90;88.20;;;;;;5113561;28;19907;-46
2022/09/28 05:34:21;;;;;;;;;;;19.90;88.20;;;;;;5113760;28;19908;-44
2022/09/28 05:36:47;;;;;;;;;;;19.90;88.20;;;;;;5113957;28;19930;-48
2022/09/28 05:39:12;;;;;;;;;;;19.90;88.20;;;;;;5113594;28;20419;-46
2022/09/28 05:41:38;;;;;;;;;;;19.90;88.20;;;;;;5113731;28;19998;-44
2022/09/28 05:44:03;;;;;;;;;;;19.90;88.20;;;;;;5113573;28;19953;-46
2022/09/28 05:46:28;;;;;;;;;;;19.80;88.20;;;;;;5113367;28;19907;-45
2022/09/28 05:48:54;;;;;;;;;;;19.80;88.30;;;;;;5113710;28;19912;-43
2022/09/28 05:51:20;;;;;;;;;;;19.80;88.30;;;;;;5095723;28;19907;-43
2022/09/28 05:53:45;;;;;;;;;;;19.80;88.30;;;;;;5094921;28;19908;-44
2022/09/28 05:56:11;;;;;;;;;;;19.80;88.40;;;;;;5113152;28;19912;-48
2022/09/28 05:58:36;;;;;;;;;;;19.80;88.50;;;;;;5113831;28;19908;-47
2022/09/28 06:01:02;;;;;;;;;;;19.70;88.50;;;;;;5106153;28;20023;-48
2022/09/28 06:03:27;;;;;;;;;;;19.70;88.50;;;;;;5093446;28;20319;-46
2022/09/28 06:05:53;;;;;;;;;;;19.70;88.50;;;;;;5095797;28;19943;-47
2022/09/28 06:08:18;;;;;;;;;;;19.70;88.50;;;;;;5090195;28;19913;-44
2022/09/28 06:10:44;;;;;;;;;;;19.70;88.50;;;;;;5090682;28;19961;-44
2022/09/28 06:13:10;;;;;;;;;;;19.70;88.50;;;;;;5079092;28;19908;-45
2022/09/28 06:15:37;;;;;;;;;;;19.80;88.50;;;;;;5076853;28;19908;-44
2022/09/28 06:18:04;;;;;;;;;;;19.70;88.50;;;;;;5076994;28;19915;-45
2022/09/28 06:20:31;;;;;;;;;;;19.70;88.50;;;;;;5079001;28;19915;-45
2022/09/28 06:22:57;;;;;;;;;;;19.70;88.50;;;;;;5095780;28;20310;-44
2022/09/28 06:25:26;;;;;;;;;;;19.70;88.50;;;;;;5091146;28;19950;-47
2022/09/28 06:27:52;;;;;;;;;;;19.70;88.60;;;;;;5095505;28;20462;-47
2022/09/28 06:30:18;;;;;;;;;;;19.70;88.60;;;;;;5095372;28;19912;-46
2022/09/28 06:32:43;;;;;;;;;;;19.70;88.60;;;;;;5096148;28;19912;-50
2022/09/28 06:35:09;;;;;;;;;;;19.70;88.70;;;;;;5107929;28;19912;-46
2022/09/28 06:37:34;;;;;;;;;;;19.70;88.60;;;;;;5117159;28;19919;-46
2022/09/28 06:40:00;;;;;;;;;;;19.70;88.90;;;;;;5103321;28;19961;-48
2022/09/28 06:42:25;;;;;;;;;;;19.70;88.70;;;;;;5110721;28;19927;-43
2022/09/28 06:44:51;;;;;;;;;;;19.70;88.70;;;;;;5084908;28;19995;-46
2022/09/28 06:47:16;;;;;;;;;;;19.70;88.90;;;;;;5094373;28;19943;-45
2022/09/28 06:49:42;;;;;;;;;;;19.70;88.90;;;;;;5096319;28;19923;-44
2022/09/28 06:52:07;;;;;;;;;;;19.70;88.90;;;;;;5076582;28;20070;-45
2022/09/28 06:54:33;;;;;;;;;;;19.60;88.80;;;;;;5083119;28;19908;-43
2022/09/28 06:56:58;;;;;;;;;;;19.60;88.90;;;;;;5096861;28;19912;-45
2022/09/28 06:59:23;;;;;;;;;;;19.60;88.90;;;;;;5082784;28;19922;-42
2022/09/28 07:01:49;;;;;;;;;;;19.70;89.20;;;;;;5093819;28;19921;-50
2022/09/28 07:04:14;;;;;;;;;;;19.60;89.20;;;;;;5106342;28;19968;-44
2022/09/28 07:06:45;;;;;;;;;;;19.60;89.30;;;;;;5099262;28;19915;-44
2022/09/28 07:09:11;;;;;;;;;;;19.60;89.30;;;;;;5113022;28;20003;-45
2022/09/28 07:11:38;;;;;;;;;;;19.70;89.40;;;;;;5098432;28;19943;-46
2022/09/28 07:14:04;;;;;;;;;;;19.60;89.30;;;;;;5114419;28;19908;-47
2022/09/28 07:16:29;;;;;;;;;;;19.60;90.00;;;;;;5110264;28;20041;-45
2022/09/28 07:18:55;;;;;;;;;;;19.60;89.40;;;;;;5095556;28;19935;-47
2022/09/28 07:21:20;;;;;;;;;;;19.60;88.80;;;;;;5077889;28;20308;-43
2022/09/28 07:23:47;;;;;;;;;;;19.60;89.40;;;;;;5096279;28;19904;-44
2022/09/28 07:26:13;;;;;;;;;;;19.60;88.90;;;;;;5099710;28;19914;-47
2022/09/28 07:28:39;;;;;;;;;;;19.60;88.90;;;;;;5085619;28;19908;-45
2022/09/28 07:31:05;;;;;;;;;;;19.60;88.90;;;;;;5095285;28;20235;-44
2022/09/28 07:33:31;;;;;;;;;;;19.60;88.70;;;;;;5102660;28;19954;-45
2022/09/28 07:35:56;;;;;;;;;;;19.60;89.00;;;;;;5104154;28;19907;-49
2022/09/28 07:38:22;;;;;;;;;;;19.60;89.00;;;;;;5116198;28;19990;-46
2022/09/28 07:43:32;;;;;;;;;;;19.60;89.00;;;;;;5105798;28;19932;-47
2022/09/28 07:45:57;;;;;;;;;;;19.60;89.00;;;;;;5100233;28;19907;-48
2022/09/28 07:48:23;;;;;;;;;;;19.60;88.60;;;;;;5106761;28;20262;-48
2022/09/28 07:50:51;;;;;;;;;;;19.60;89.10;;;;;;5089581;28;19908;-47
2022/09/28 07:53:20;;;;;;;;;;;19.60;89.00;;;;;;5095362;28;19904;-43
2022/09/28 07:55:56;;;;;;;;;;;19.70;89.00;;;;;;5094180;28;19994;-44
2022/09/28 07:58:21;;;;;;;;;;;19.80;88.50;;;;;;5105309;28;19908;-43
2022/09/28 08:00:47;;;;;;;;;;;19.80;87.70;;;;;;5089740;28;19908;-47
2022/09/28 08:03:14;;;;;;;;;;;19.90;87.00;;;;;;5103132;28;20422;-44
2022/09/28 08:05:40;;;;;;;;;;;20.00;87.70;;;;;;5108074;28;20035;-45
2022/09/28 08:08:05;;;;;;;;;;;20.20;87.60;;;;;;5107879;28;19908;-45
2022/09/28 08:10:31;;;;;;;;;;;20.30;87.30;;;;;;5115744;28;19949;-44
2022/09/28 08:12:57;;;;;;;;;;;20.40;87.00;;;;;;5109401;28;19908;-50
2022/09/28 08:15:23;;;;;;;;;;;20.50;86.70;;;;;;5110513;28;19994;-45
2022/09/28 08:17:48;;;;;;;;;;;20.60;86.40;;;;;;5097268;28;19950;-45
2022/09/28 08:23:02;;;;;;;;;;;20.80;86.00;;;;;;5110812;28;19922;-46
2022/09/28 08:25:28;;;;;;;;;;;20.80;85.90;;;;;;5111837;28;19908;-47
2022/09/28 08:27:54;;;;;;;;;;;20.80;85.90;;;;;;5110437;28;19903;-47
2022/09/28 08:30:20;;;;;;;;;;;20.80;85.90;;;;;;5110945;28;20303;-46
2022/09/28 08:32:48;;;;;;;;;;;20.80;86.00;;;;;;5107767;28;19947;-47
2022/09/28 08:35:14;;;;;;;;;;;20.80;86.10;;;;;;5115338;28;19911;-45
2022/09/28 08:37:39;;;;;;;;;;;20.80;86.20;;;;;;5107955;28;19912;-45
2022/09/28 08:40:11;;;;;;;;;;;20.80;86.90;;;;;;5115565;28;20350;-47
2022/09/28 08:42:41;;;;;;;;;;;20.80;86.30;;;;;;5111668;28;19916;-47
2022/09/28 08:45:08;;;;;;;;;;;20.80;86.40;;;;;;5115000;28;19904;-46
2022/09/28 08:50:21;;;;;;;;;;;20.70;86.50;;;;;;5111602;28;20414;-46
2022/09/28 08:52:50;;;;;;;;;;;20.70;86.50;;;;;;5107041;28;19907;-46
2022/09/28 08:55:22;;;;;;;;;;;20.70;86.60;;;;;;5114657;28;19908;-46
2022/09/28 08:57:48;;;;;;;;;;;20.70;86.60;;;;;;5100359;28;19923;-46
2022/09/28 09:00:18;;;;;;;;;;;20.70;86.60;;;;;;5114877;28;19903;-45
2022/09/28 09:02:45;;;;;;;;;;;20.70;86.70;;;;;;5104560;28;19930;-46
2022/09/28 09:05:13;;;;;;;;;;;20.70;86.70;;;;;;5114805;28;20346;-45
2022/09/28 09:07:45;;;;;;;;;;;20.70;86.60;;;;;;5112452;28;19912;-46
2022/09/28 09:10:32;;;;;;;;;;;20.80;86.50;;;;;;5105391;28;19961;-46
2022/09/28 09:13:17;;;;;;;;;;;20.90;86.20;;;;;;5098475;28;19961;-45
2022/09/28 09:15:54;;;;;;;;;;;21.00;86.10;;;;;;5111309;28;19939;-46
2022/09/28 09:18:49;;;;;;;;;;;21.10;85.90;;;;;;5111235;28;20343;-48
2022/09/28 09:21:37;;;;;;;;;;;21.10;85.70;;;;;;5082522;28;19912;-48
2022/09/28 09:24:10;;;;;;;;;;;21.10;85.60;;;;;;5094347;28;19907;-45
2022/09/28 09:26:39;;;;;;;;;;;21.10;85.60;;;;;;5104889;28;20064;-46
2022/09/28 09:29:25;;;;;;;;;;;21.10;85.70;;;;;;5104166;28;19918;-50
2022/09/28 09:31:51;;;;;;;;;;;21.10;85.60;;;;;;5109523;28;20037;-51
2022/09/28 09:34:23;;;;;;;;;;;21.10;85.80;;;;;;5114471;28;20015;-45
2022/09/28 09:36:48;;;;;;;;;;;21.00;85.80;;;;;;5107290;28;20603;-45
2022/09/28 09:39:22;;;;;;;;;;;21.00;85.30;;;;;;5093047;28;19915;-47
2022/09/28 09:42:06;;;;;;;;;;;21.00;85.00;;;;;;5096062;28;19928;-45
2022/09/28 09:44:58;;;;;;;;;;;21.00;84.80;;;;;;5107969;28;19909;-46
2022/09/28 09:47:32;;;;;;;;;;;20.90;84.40;;;;;;5106946;28;20302;-50
2022/09/28 09:50:01;;;;;;;;;;;20.90;85.60;;;;;;5113983;28;19927;-51
2022/09/28 09:52:32;;;;;;;;;;;20.90;85.70;;;;;;5108122;28;19943;-47
2022/09/28 09:55:13;;;;;;;;;;;20.90;85.70;;;;;;5113789;28;20261;-47
2022/09/28 09:57:41;;;;;;;;;;;20.90;85.70;;;;;;5073559;28;19912;-47
2022/09/28 10:00:11;;;;;;;;;;;20.90;85.80;;;;;;5079317;28;19916;-48
2022/09/28 10:02:38;;;;;;;;;;;20.90;85.70;;;;;;5102842;28;19912;-48
2022/09/28 10:05:15;;;;;;;;;;;20.90;85.70;;;;;;5101790;28;20331;-47
2022/09/28 10:07:48;;;;;;;;;;;21.00;85.80;;;;;;5103740;28;19908;-52
2022/09/28 10:10:16;;;;;;;;;;;21.10;85.60;;;;;;5114010;28;19907;-47
2022/09/28 10:12:42;;;;;;;;;;;21.10;85.40;;;;;;5104889;28;19982;-55
2022/09/28 10:15:08;;;;;;;;;;;21.20;85.30;;;;;;5103031;28;20011;-50
2022/09/28 10:17:35;;;;;;;;;;;21.20;85.20;;;;;;5107917;28;20263;-46
2022/09/28 10:20:02;;;;;;;;;;;21.20;85.20;;;;;;5092432;28;19908;-47
2022/09/28 10:22:29;;;;;;;;;;;21.20;85.30;;;;;;5106437;28;19919;-49
2022/09/28 10:24:56;;;;;;;;;;;21.20;85.30;;;;;;5089804;28;19951;-46
2022/09/28 10:27:27;;;;;;;;;;;21.20;85.30;;;;;;5094950;28;20016;-46
2022/09/28 10:30:01;;;;;;;;;;;21.20;85.00;;;;;;5098922;28;19912;-46
2022/09/28 10:32:40;;;;;;;;;;;21.10;85.00;;;;;;5105940;28;19926;-44
2022/09/28 10:35:17;;;;;;;;;;;21.10;84.70;;;;;;5086748;28;19954;-45
2022/09/28 10:38:03;;;;;;;;;;;21.10;84.70;;;;;;5102837;28;19912;-46
2022/09/28 10:40:45;;;;;;;;;;;21.00;84.60;;;;;;5104400;28;19916;-46
2022/09/28 10:43:19;;;;;;;;;;;21.00;84.50;;;;;;5101479;28;20392;-49
2022/09/28 10:45:44;;;;;;;;;;;21.00;84.90;;;;;;5108084;28;19919;-52
2022/09/28 10:48:20;;;;;;;;;;;21.00;85.40;;;;;;5113517;28;19903;-51
2022/09/28 10:51:01;;;;;;;;;;;21.00;85.40;;;;;;5101871;28;19908;-48
2022/09/28 10:53:26;;;;;;;;;;;21.00;85.40;;;;;;5108538;28;19915;-50
2022/09/28 10:55:56;;;;;;;;;;;21.00;85.40;;;;;;5116771;28;20255;-51
2022/09/28 10:58:24;;;;;;;;;;;21.00;85.40;;;;;;5114304;28;19935;-46
2022/09/28 11:00:49;;;;;;;;;;;21.10;85.50;;;;;;5114790;28;19908;-48
2022/09/28 11:03:25;;;;;;;;;;;21.10;85.40;;;;;;5104972;28;19948;-47
2022/09/28 11:05:54;;;;;;;;;;;21.20;85.30;;;;;;5112723;28;19923;-46
2022/09/28 11:08:25;;;;;;;;;;;21.20;85.70;;;;;;5112078;28;19912;-46
2022/09/28 11:11:00;;;;;;;;;;;21.20;85.10;;;;;;5106266;28;19912;-47
2022/09/28 11:13:26;;;;;;;;;;;21.20;85.10;;;;;;5096255;28;19909;-48
2022/09/28 11:15:52;;;;;;;;;;;21.20;85.10;;;;;;5095991;28;19908;-46
2022/09/28 11:18:21;;;;;;;;;;;21.20;85.10;;;;;;5095867;28;20370;-48
2022/09/28 11:20:48;;;;;;;;;;;21.20;85.10;;;;;;5095845;28;19908;-48
2022/09/28 11:23:16;;;;;;;;;;;21.20;85.10;;;;;;5095836;28;20359;-50
2022/09/28 11:25:42;;;;;;;;;;;21.20;85.10;;;;;;5085458;28;20423;-46
2022/09/28 11:28:14;;;;;;;;;;;21.10;85.10;;;;;;5092742;28;19909;-50
2022/09/28 11:30:48;;;;;;;;;;;21.10;85.10;;;;;;5091058;28;19912;-45
2022/09/28 11:33:18;;;;;;;;;;;21.10;85.10;;;;;;5086300;28;20410;-48
2022/09/28 11:35:49;;;;;;;;;;;21.10;85.10;;;;;;5094163;28;19904;-47
2022/09/28 11:38:33;;;;;;;;;;;21.10;85.10;;;;;;5103981;28;20004;-46
2022/09/28 11:41:05;;;;;;;;;;;21.10;85.00;;;;;;5098130;28;19919;-46
2022/09/28 11:43:43;;;;;;;;;;;21.00;85.20;;;;;;5098186;28;19916;-45
2022/09/28 11:46:25;;;;;;;;;;;21.00;85.20;;;;;;5102144;28;19999;-47
2022/09/28 11:48:53;;;;;;;;;;;21.00;85.30;;;;;;5104264;28;19964;-49
2022/09/28 11:51:25;;;;;;;;;;;21.00;85.40;;;;;;5112066;28;19919;-48
2022/09/28 11:53:53;;;;;;;;;;;21.00;85.40;;;;;;5095372;28;19915;-49
2022/09/28 11:56:37;;;;;;;;;;;21.00;85.40;;;;;;5104618;28;19912;-49
2022/09/28 11:59:05;;;;;;;;;;;21.10;85.50;;;;;;5104130;28;20384;-51
2022/09/28 12:01:34;;;;;;;;;;;21.20;85.40;;;;;;5105678;28;19919;-48
2022/09/28 12:04:03;;;;;;;;;;;21.20;85.30;;;;;;5086101;28;19920;-50
2022/09/28 12:06:34;;;;;;;;;;;21.20;85.10;;;;;;5109339;28;20053;-48
2022/09/28 12:09:05;;;;;;;;;;;21.30;85.10;;;;;;5101321;28;19919;-47
2022/09/28 12:11:34;;;;;;;;;;;21.30;84.90;;;;;;5084009;28;19912;-49
2022/09/28 12:14:02;;;;;;;;;;;21.30;85.10;;;;;;5108786;28;19912;-50
2022/09/28 12:16:37;;;;;;;;;;;21.30;85.00;;;;;;5094632;28;19959;-45
2022/09/28 12:19:11;;;;;;;;;;;21.30;85.00;;;;;;5108576;28;19934;-46
2022/09/28 12:21:42;;;;;;;;;;;21.30;85.20;;;;;;5111001;28;19927;-46
2022/09/28 12:24:17;;;;;;;;;;;21.30;85.20;;;;;;5076758;28;19908;-46
2022/09/28 12:27:00;;;;;;;;;;;21.20;85.20;;;;;;5101430;28;19947;-53
2022/09/28 12:29:40;;;;;;;;;;;21.20;85.30;;;;;;5110641;28;20338;-53
2022/09/28 12:32:20;;;;;;;;;;;21.20;85.50;;;;;;5090688;28;20259;-54
2022/09/28 12:34:46;;;;;;;;;;;21.10;85.60;;;;;;5095751;28;20278;-51
2022/09/28 12:37:20;;;;;;;;;;;21.10;85.80;;;;;;5098325;28;20015;-53
2022/09/28 12:39:52;;;;;;;;;;;21.10;85.90;;;;;;5094326;28;19965;-49
2022/09/28 12:42:27;;;;;;;;;;;21.10;85.90;;;;;;5115029;28;19947;-54
2022/09/28 12:45:26;;;;;;;;;;;21.10;86.00;;;;;;5114711;28;19912;-55
2022/09/28 12:47:51;;;;;;;;;;;21.10;86.00;;;;;;5067578;28;19912;-56
2022/09/28 12:50:37;;;;;;;;;;;21.10;86.50;;;;;;5094198;28;19916;-52
2022/09/28 12:53:06;;;;;;;;;;;21.10;86.00;;;;;;5092983;28;19912;-55
2022/09/28 12:55:32;;;;;;;;;;;21.10;86.00;;;;;;5093842;28;19912;-55
2022/09/28 12:57:58;;;;;;;;;;;21.10;86.00;;;;;;5101016;28;19918;-51
2022/09/28 13:00:39;;;;;;;;;;;21.10;85.90;;;;;;5081126;28;19999;-56
2022/09/28 13:03:06;;;;;;;;;;;21.10;85.80;;;;;;5114600;28;19920;-53
2022/09/28 13:05:51;;;;;;;;;;;21.10;85.90;;;;;;5080385;28;20344;-53
2022/09/28 13:08:35;;;;;;;;;;;21.10;85.70;;;;;;5098961;28;20295;-55
2022/09/28 13:11:21;;;;;;;;;;;21.10;85.80;;;;;;5106139;28;19962;-50
2022/09/28 13:13:52;;;;;;;;;;;21.10;85.80;;;;;;5103510;28;20093;-55
2022/09/28 13:16:33;;;;;;;;;;;21.10;85.90;;;;;;5108406;28;19941;-54
2022/09/28 13:18:59;;;;;;;;;;;21.10;85.90;;;;;;5105755;28;19964;-53
2022/09/28 13:21:51;;;;;;;;;;;21.10;86.00;;;;;;5106494;28;19916;-51
2022/09/28 13:24:25;;;;;;;;;;;21.10;86.10;;;;;;5105049;28;20019;-49
2022/09/28 13:26:50;;;;;;;;;;;21.10;86.10;;;;;;5099227;28;19924;-52
2022/09/28 13:29:17;;;;;;;;;;;21.10;86.20;;;;;;5105376;28;20264;-52
2022/09/28 13:31:58;;;;;;;;;;;21.10;86.10;;;;;;5103665;28;19964;-52
2022/09/28 13:34:26;;;;;;;;;;;21.10;86.10;;;;;;5100911;28;20560;-51
2022/09/28 13:37:10;;;;;;;;;;;21.10;86.10;;;;;;5100532;28;19919;-55
2022/09/28 13:39:45;;;;;;;;;;;21.10;86.10;;;;;;5109160;28;19960;-52
2022/09/28 13:42:11;;;;;;;;;;;21.10;86.20;;;;;;5102183;28;19919;-51
2022/09/28 13:44:47;;;;;;;;;;;21.10;86.20;;;;;;5103840;28;19917;-50
2022/09/28 13:47:33;;;;;;;;;;;21.10;86.20;;;;;;5099496;28;20251;-53
2022/09/28 13:50:10;;;;;;;;;;;21.10;86.20;;;;;;5106909;28;20003;-51
2022/09/28 13:52:44;;;;;;;;;;;21.10;86.20;;;;;;5107332;28;19959;-52
2022/09/28 13:55:09;;;;;;;;;;;21.20;86.10;;;;;;5113760;28;19908;-50
2022/09/28 13:57:47;;;;;;;;;;;21.10;86.00;;;;;;5112073;28;19930;-56
2022/09/28 14:00:12;;;;;;;;;;;21.10;86.10;;;;;;5104441;28;19947;-51
2022/09/28 14:02:38;;;;;;;;;;;21.10;86.10;;;;;;5089426;28;20029;-51
2022/09/28 14:05:04;;;;;;;;;;;21.10;86.10;;;;;;5100816;28;19924;-54
2022/09/28 14:07:33;;;;;;;;;;;21.10;86.20;;;;;;5097509;28;19923;-54
2022/09/28 14:10:19;;;;;;;;;;;21.10;86.30;;;;;;5102002;28;19920;-54
2022/09/28 14:12:50;;;;;;;;;;;21.00;86.30;;;;;;5106716;28;19916;-55
2022/09/28 14:15:27;;;;;;;;;;;21.10;86.20;;;;;;5110929;28;19932;-51
2022/09/28 14:17:59;;;;;;;;;;;21.10;86.20;;;;;;5111530;28;20391;-56
2022/09/28 14:20:26;;;;;;;;;;;21.10;86.20;;;;;;5112092;28;19912;-54
2022/09/28 14:23:00;;;;;;;;;;;21.10;86.30;;;;;;5092221;28;20334;-50
2022/09/28 14:25:29;;;;;;;;;;;21.10;86.30;;;;;;5093668;28;20257;-52
2022/09/28 14:28:13;;;;;;;;;;;21.10;86.20;;;;;;5109209;28;20359;-47
2022/09/28 14:30:41;;;;;;;;;;;21.10;86.40;;;;;;5101106;28;19920;-49
2022/09/28 14:33:19;;;;;;;;;;;21.10;85.40;;;;;;5113513;28;19912;-53
2022/09/28 14:35:49;;;;;;;;;;;21.10;84.80;;;;;;5096370;28;19955;-54
2022/09/28 14:41:09;;;;;;;;;;;21.20;85.80;;;;;;5096518;28;19914;-55
2022/09/28 14:43:43;;;;;;;;;;;21.20;85.80;;;;;;5096918;28;19920;-54